Time,TemperatureF,DewpointF,PressureIn,WindDirection,WindDirectionDegrees,WindSpeedMPH,WindSpeedGustMPH,Humidity,HourlyPrecipIn,Conditions,Clouds,dailyrainin,SolarRadiationWatts/m^2,SoftwareType,DateUTC
2013-04-20 00:07:00,41.7,37.0,30.14,WNW,291,0.0,1.0,84,0.00,,,0.00,0,weatherlink.com 1.10,2013-04-20 05:07:00,
2013-04-20 00:22:00,42.1,37.0,30.15,WNW,291,0.0,2.0,83,0.00,,,0.00,0,weatherlink.com 1.10,2013-04-20 05:22:00,
2013-04-20 00:37:00,42.3,37.0,30.15,WNW,291,0.0,1.0,82,0.00,,,0.00,0,weatherlink.com 1.10,2013-04-20 05:37:00,
2013-04-20 00:52:00,42.2,37.0,30.16,South,185,0.0,2.0,83,0.00,,,0.00,0,weatherlink.com 1.10,2013-04-20 05:52:00,
2013-04-20 01:07:00,42.5,37.0,30.16,South,185,0.0,2.0,82,0.00,,,0.00,0,weatherlink.com 1.10,2013-04-20 06:07:00,
2013-04-20 01:22:00,42.4,37.0,30.16,South,185,0.0,1.0,82,0.00,,,0.00,0,weatherlink.com 1.10,2013-04-20 06:22:00,
2013-04-20 01:37:00,41.8,37.0,30.15,South,185,0.0,1.0,83,0.00,,,0.00,0,weatherlink.com 1.10,2013-04-20 06:37:00,
2013-04-20 01:52:00,41.2,37.0,30.15,South,185,0.0,0.0,86,0.00,,,0.00,0,weatherlink.com 1.10,2013-04-20 06:52:00,
2013-04-20 02:07:00,40.3,37.0,30.15,South,185,0.0,0.0,87,0.00,,,0.00,0,weatherlink.com 1.10,2013-04-20 07:07:00,
2013-04-20 02:22:00,39.7,37.0,30.15,South,185,0.0,0.0,88,0.00,,,0.00,0,weatherlink.com 1.10,2013-04-20 07:22:00,
2013-04-20 02:37:00,39.8,37.0,30.16,South,185,0.0,0.0,89,0.00,,,0.00,0,weatherlink.com 1.10,2013-04-20 07:37:00,
2013-04-20 02:52:00,39.8,37.0,30.16,South,185,0.0,1.0,90,0.00,,,0.00,0,weatherlink.com 1.10,2013-04-20 07:52:00,
2013-04-20 03:07:00,39.6,37.0,30.17,South,185,0.0,0.0,90,0.00,,,0.00,0,weatherlink.com 1.10,2013-04-20 08:07:00,
2013-04-20 03:22:00,39.8,37.0,30.16,South,185,0.0,1.0,90,0.00,,,0.00,0,weatherlink.com 1.10,2013-04-20 08:22:00,
2013-04-20 03:37:00,39.6,37.0,30.16,South,185,0.0,0.0,90,0.00,,,0.00,0,weatherlink.com 1.10,2013-04-20 08:37:00,
2013-04-20 03:52:00,39.0,36.0,30.16,South,185,0.0,0.0,90,0.00,,,0.00,0,weatherlink.com 1.10,2013-04-20 08:52:00,
2013-04-20 04:07:00,38.7,36.0,30.16,South,185,0.0,0.0,91,0.00,,,0.00,0,weatherlink.com 1.10,2013-04-20 09:07:00,
2013-04-20 04:22:00,38.3,36.0,30.17,South,185,0.0,0.0,91,0.00,,,0.00,0,weatherlink.com 1.10,2013-04-20 09:22:00,
2013-04-20 04:37:00,37.8,36.0,30.17,South,185,0.0,0.0,91,0.00,,,0.00,0,weatherlink.com 1.10,2013-04-20 09:37:00,
2013-04-20 04:52:00,37.4,35.0,30.18,South,185,0.0,0.0,91,0.00,,,0.00,0,weatherlink.com 1.10,2013-04-20 09:52:00,
2013-04-20 05:07:00,37.2,35.0,30.18,South,185,0.0,0.0,92,0.00,,,0.00,0,weatherlink.com 1.10,2013-04-20 10:07:00,
2013-04-20 05:22:00,37.0,35.0,30.18,South,185,0.0,0.0,92,0.00,,,0.00,0,weatherlink.com 1.10,2013-04-20 10:22:00,
2013-04-20 05:37:00,36.7,35.0,30.19,South,185,0.0,0.0,92,0.00,,,0.00,0,weatherlink.com 1.10,2013-04-20 10:37:00,
2013-04-20 05:53:00,36.6,35.0,30.19,South,185,0.0,0.0,93,0.00,,,0.00,0,weatherlink.com 1.10,2013-04-20 10:53:00,
2013-04-20 06:08:00,37.1,35.0,30.19,South,185,0.0,0.0,93,0.00,,,0.00,0,weatherlink.com 1.10,2013-04-20 11:08:00,
2013-04-20 06:23:00,37.1,35.0,30.20,South,185,0.0,0.0,93,0.00,,,0.00,5,weatherlink.com 1.10,2013-04-20 11:23:00,
2013-04-20 06:40:00,37.1,35.0,30.20,South,183,0.0,0.0,93,0.00,,,0.00,18,weatherlink.com 1.10,2013-04-20 11:40:00,
2013-04-20 06:55:00,37.2,35.0,30.20,SW,221,0.0,0.0,93,0.00,,,0.00,32,weatherlink.com 1.10,2013-04-20 11:55:00,
2013-04-20 07:10:00,38.4,37.0,30.21,SW,221,0.0,0.0,94,0.00,,,0.00,93,weatherlink.com 1.10,2013-04-20 12:10:00,
2013-04-20 07:25:00,41.0,40.0,30.22,SE,139,0.0,1.0,95,0.00,,,0.00,142,weatherlink.com 1.10,2013-04-20 12:25:00,
2013-04-20 07:40:00,43.3,42.0,30.22,SE,139,0.0,1.0,94,0.00,,,0.00,200,weatherlink.com 1.10,2013-04-20 12:40:00,
2013-04-20 07:55:00,45.7,43.0,30.23,East,87,1.0,2.0,90,0.00,,,0.00,253,weatherlink.com 1.10,2013-04-20 12:55:00,
2013-04-20 08:10:00,47.7,44.0,30.23,ESE,108,0.0,3.0,86,0.00,,,0.00,315,weatherlink.com 1.10,2013-04-20 13:10:00,
2013-04-20 08:26:00,49.6,43.0,30.23,ESE,108,1.0,3.0,78,0.00,,,0.00,376,weatherlink.com 1.10,2013-04-20 13:26:00,
2013-04-20 08:41:00,51.2,44.0,30.23,SSE,160,1.0,3.0,75,0.00,,,0.00,427,weatherlink.com 1.10,2013-04-20 13:41:00,
2013-04-20 08:56:00,52.7,44.0,30.23,SE,144,0.0,3.0,72,0.00,,,0.00,478,weatherlink.com 1.10,2013-04-20 13:56:00,
2013-04-20 09:11:00,54.2,44.0,30.24,SSW,205,2.0,3.0,69,0.00,,,0.00,529,weatherlink.com 1.10,2013-04-20 14:11:00,
2013-04-20 09:26:00,55.1,44.0,30.24,SW,224,2.0,4.0,66,0.00,,,0.00,575,weatherlink.com 1.10,2013-04-20 14:26:00,
2013-04-20 09:43:00,55.4,42.0,30.25,South,189,4.0,5.0,62,0.00,,,0.00,626,weatherlink.com 1.10,2013-04-20 14:43:00,
2013-04-20 09:58:00,56.3,41.0,30.25,SSW,196,1.0,4.0,57,0.00,,,0.00,670,weatherlink.com 1.10,2013-04-20 14:58:00,
2013-04-20 10:13:00,57.4,42.0,30.25,SSW,197,0.0,4.0,56,0.00,,,0.00,712,weatherlink.com 1.10,2013-04-20 15:13:00,
2013-04-20 10:28:00,58.0,41.0,30.26,SSW,210,3.0,8.0,54,0.00,,,0.00,752,weatherlink.com 1.10,2013-04-20 15:28:00,
2013-04-20 10:44:00,58.7,40.0,30.26,SSW,199,5.0,8.0,50,0.00,,,0.00,789,weatherlink.com 1.10,2013-04-20 15:44:00,
2013-04-20 10:58:00,59.0,38.0,30.26,SW,226,1.0,6.0,45,0.00,,,0.00,824,weatherlink.com 1.10,2013-04-20 15:58:00,
2013-04-20 11:13:00,59.3,36.0,30.26,West,272,2.0,8.0,42,0.01,,,0.01,754,weatherlink.com 1.10,2013-04-20 16:13:00,
2013-04-20 11:28:00,59.4,37.0,30.27,NNW,328,1.0,6.0,44,0.03,,,0.03,865,weatherlink.com 1.10,2013-04-20 16:28:00,
2013-04-20 11:44:00,60.1,39.0,30.26,SW,230,3.0,5.0,46,0.03,,,0.03,919,weatherlink.com 1.10,2013-04-20 16:44:00,
2013-04-20 12:00:00,61.2,39.0,30.26,North,10,3.0,7.0,44,0.03,,,0.03,919,weatherlink.com 1.10,2013-04-20 17:00:00,
2013-04-20 12:14:00,61.5,38.0,30.26,SSW,208,3.0,7.0,42,0.01,,,0.03,939,weatherlink.com 1.10,2013-04-20 17:14:00,
2013-04-20 12:30:00,62.0,37.0,30.25,WNW,292,4.0,10.0,39,0.00,,,0.03,958,weatherlink.com 1.10,2013-04-20 17:30:00,
2013-04-20 12:45:00,62.6,36.0,30.24,SW,224,3.0,9.0,37,0.00,,,0.03,821,weatherlink.com 1.10,2013-04-20 17:45:00,
2013-04-20 13:00:00,62.5,38.0,30.24,West,268,3.0,8.0,41,0.00,,,0.03,831,weatherlink.com 1.10,2013-04-20 18:00:00,
2013-04-20 13:16:00,62.6,37.0,30.24,WNW,288,5.0,8.0,39,0.00,,,0.03,779,weatherlink.com 1.10,2013-04-20 18:16:00,
2013-04-20 13:31:00,63.3,37.0,30.23,ENE,58,2.0,6.0,38,0.00,,,0.03,737,weatherlink.com 1.10,2013-04-20 18:31:00,
2013-04-20 13:48:00,63.6,35.0,30.23,NW,320,4.0,8.0,34,0.00,,,0.03,991,weatherlink.com 1.10,2013-04-20 18:48:00,
2013-04-20 14:02:00,63.3,35.0,30.22,SW,218,0.0,5.0,35,0.00,,,0.03,429,weatherlink.com 1.10,2013-04-20 19:02:00,
2013-04-20 14:16:00,63.7,41.0,30.22,West,263,5.0,5.0,43,0.00,,,0.03,895,weatherlink.com 1.10,2013-04-20 19:16:00,
2013-04-20 14:31:00,64.5,39.0,30.22,NW,326,2.0,7.0,39,0.00,,,0.03,844,weatherlink.com 1.10,2013-04-20 19:31:00,
2013-04-20 14:48:00,64.9,38.0,30.21,North,5,3.0,7.0,37,0.00,,,0.03,837,weatherlink.com 1.10,2013-04-20 19:48:00,
2013-04-20 15:02:00,65.1,41.0,30.21,West,264,1.0,7.0,41,0.00,,,0.03,796,weatherlink.com 1.10,2013-04-20 20:02:00,
2013-04-20 15:18:00,65.1,39.0,30.20,WNW,297,1.0,7.0,38,0.00,,,0.03,758,weatherlink.com 1.10,2013-04-20 20:18:00,
2013-04-20 15:33:00,65.9,39.0,30.19,NW,309,1.0,7.0,38,0.00,,,0.03,684,weatherlink.com 1.10,2013-04-20 20:33:00,
2013-04-20 15:48:00,66.3,38.0,30.19,NW,316,4.0,6.0,35,0.00,,,0.03,680,weatherlink.com 1.10,2013-04-20 20:48:00,
2013-04-20 16:03:00,66.2,38.0,30.19,NNW,340,0.0,5.0,35,0.00,,,0.03,635,weatherlink.com 1.10,2013-04-20 21:03:00,
2013-04-20 16:18:00,67.1,39.0,30.18,NE,34,2.0,7.0,36,0.00,,,0.03,591,weatherlink.com 1.10,2013-04-20 21:18:00,
2013-04-20 16:34:00,67.3,39.0,30.18,WNW,291,3.0,6.0,36,0.00,,,0.03,540,weatherlink.com 1.10,2013-04-20 21:34:00,
2013-04-20 16:49:00,67.9,38.0,30.18,East,83,1.0,7.0,33,0.00,,,0.03,503,weatherlink.com 1.10,2013-04-20 21:49:00,
2013-04-20 17:05:00,67.3,36.0,30.17,ENE,69,4.0,7.0,32,0.00,,,0.03,420,weatherlink.com 1.10,2013-04-20 22:05:00,
2013-04-20 17:20:00,67.0,36.0,30.17,NNW,332,1.0,5.0,32,0.00,,,0.03,267,weatherlink.com 1.10,2013-04-20 22:20:00,
2013-04-20 17:35:00,67.0,37.0,30.17,NE,51,1.0,4.0,33,0.00,,,0.03,309,weatherlink.com 1.10,2013-04-20 22:35:00,
2013-04-20 17:50:00,66.8,37.0,30.17,NE,43,1.0,7.0,33,0.00,,,0.03,302,weatherlink.com 1.10,2013-04-20 22:50:00,
2013-04-20 18:05:00,67.4,38.0,30.16,North,360,1.0,4.0,34,0.00,,,0.03,241,weatherlink.com 1.10,2013-04-20 23:05:00,
2013-04-20 18:20:00,66.5,36.0,30.16,NE,46,1.0,5.0,33,0.00,,,0.03,158,weatherlink.com 1.10,2013-04-20 23:20:00,
2013-04-20 18:35:00,65.8,39.0,30.17,ENE,63,1.0,4.0,37,0.00,,,0.03,113,weatherlink.com 1.10,2013-04-20 23:35:00,
2013-04-20 18:51:00,65.1,38.0,30.16,ESE,119,1.0,3.0,37,0.00,,,0.03,95,weatherlink.com 1.10,2013-04-20 23:51:00,
2013-04-20 19:06:00,64.8,38.0,30.17,North,360,0.0,2.0,38,0.00,,,0.03,37,weatherlink.com 1.10,2013-04-21 00:06:00,
2013-04-20 19:21:00,63.9,39.0,30.17,North,360,0.0,0.0,40,0.00,,,0.03,14,weatherlink.com 1.10,2013-04-21 00:21:00,
2013-04-20 19:35:00,62.3,41.0,30.18,North,360,1.0,1.0,45,0.00,,,0.03,0,weatherlink.com 1.10,2013-04-21 00:35:00,
2013-04-20 19:52:00,60.3,43.0,30.18,North,360,0.0,0.0,53,0.00,,,0.03,0,weatherlink.com 1.10,2013-04-21 00:52:00,
2013-04-20 20:07:00,58.1,42.0,30.19,North,360,0.0,0.0,56,0.00,,,0.03,0,weatherlink.com 1.10,2013-04-21 01:07:00,
2013-04-20 20:21:00,56.6,45.0,30.19,North,360,0.0,0.0,65,0.00,,,0.03,0,weatherlink.com 1.10,2013-04-21 01:21:00,
2013-04-20 20:36:00,55.7,43.0,30.20,North,360,1.0,2.0,62,0.00,,,0.03,0,weatherlink.com 1.10,2013-04-21 01:36:00,
2013-04-20 20:52:00,55.7,44.0,30.21,North,360,0.0,1.0,64,0.00,,,0.03,0,weatherlink.com 1.10,2013-04-21 01:52:00,
2013-04-20 21:07:00,55.9,42.0,30.21,North,360,0.0,2.0,60,0.00,,,0.03,0,weatherlink.com 1.10,2013-04-21 02:07:00,
2013-04-20 21:23:00,55.9,43.0,30.22,North,360,0.0,2.0,62,0.00,,,0.03,0,weatherlink.com 1.10,2013-04-21 02:23:00,
2013-04-20 21:38:00,55.2,41.0,30.22,ENE,71,0.0,2.0,60,0.00,,,0.03,0,weatherlink.com 1.10,2013-04-21 02:38:00,
2013-04-20 21:53:00,54.7,43.0,30.23,ENE,71,0.0,1.0,64,0.00,,,0.03,0,weatherlink.com 1.10,2013-04-21 02:53:00,
2013-04-20 22:08:00,54.6,43.0,30.23,ENE,71,0.0,3.0,64,0.00,,,0.03,0,weatherlink.com 1.10,2013-04-21 03:08:00,
2013-04-20 22:23:00,54.4,42.0,30.23,ENE,71,0.0,2.0,64,0.00,,,0.03,0,weatherlink.com 1.10,2013-04-21 03:23:00,
2013-04-20 22:38:00,53.9,41.0,30.23,ENE,71,0.0,2.0,63,0.00,,,0.03,0,weatherlink.com 1.10,2013-04-21 03:38:00,
2013-04-20 22:53:00,53.8,41.0,30.24,ENE,71,0.0,2.0,63,0.00,,,0.03,0,weatherlink.com 1.10,2013-04-21 03:53:00,
2013-04-20 23:08:00,53.1,41.0,30.24,ENE,71,0.0,2.0,64,0.00,,,0.03,0,weatherlink.com 1.10,2013-04-21 04:08:00,
2013-04-20 23:23:00,52.8,41.0,30.24,ENE,71,0.0,2.0,65,0.00,,,0.03,0,weatherlink.com 1.10,2013-04-21 04:23:00,
2013-04-20 23:38:00,52.2,41.0,30.24,ENE,71,0.0,1.0,66,0.00,,,0.03,0,weatherlink.com 1.10,2013-04-21 04:38:00,
2013-04-20 23:53:00,52.0,40.0,30.24,ENE,71,0.0,3.0,65,0.00,,,0.03,0,weatherlink.com 1.10,2013-04-21 04:53:00,